Time;durP1;ratioP1;P1;durP2;ratioP2;P2;SDS_P1;SDS_P2;PMS_P1;PMS_P2;Temp;Humidity;BMP_temperature;BMP_pressure;BME280_temperature;BME280_humidity;BME280_pressure;Samples;Min_cycle;Max_cycle;Signal;HPM_P1;HPM_P2
2023/06/20 00:01:00;;;;;;;;;21.50;21.00;25.70;54.10;;;;;;111215;1238;44622;-62
2023/06/20 00:03:43;;;;;;;;;19.00;17.25;25.60;53.90;;;;;;111203;1240;49304;-63
2023/06/20 00:06:10;;;;;;;;;20.00;19.75;25.70;54.00;;;;;;111255;1243;49473;-62
2023/06/20 00:08:37;;;;;;;;;23.50;21.75;25.60;54.50;;;;;;111209;1243;54582;-62
2023/06/20 00:11:04;;;;;;;;;22.25;21.00;25.60;53.90;;;;;;111209;1241;45047;-63
2023/06/20 00:13:31;;;;;;;;;20.00;19.75;25.60;54.00;;;;;;111198;1244;49953;-63
2023/06/20 00:15:58;;;;;;;;;20.00;19.33;25.60;54.00;;;;;;111279;1238;49409;-63
2023/06/20 00:18:25;;;;;;;;;19.75;19.00;25.60;54.10;;;;;;111285;1238;54000;-63
2023/06/20 00:20:55;;;;;;;;;23.33;22.00;25.60;54.20;;;;;;111202;1240;44385;-62
2023/06/20 00:23:24;;;;;;;;;23.00;21.00;25.60;54.00;;;;;;111215;1238;49450;-63
2023/06/20 00:25:51;;;;;;;;;22.00;20.50;25.60;54.20;;;;;;111227;1243;49841;-63
2023/06/20 00:28:18;;;;;;;;;20.50;19.00;25.50;54.00;;;;;;111253;1245;54097;-63
2023/06/20 00:30:45;;;;;;;;;19.67;18.00;25.50;54.10;;;;;;111233;1238;44934;-63
2023/06/20 00:33:12;;;;;;;;;25.00;22.00;25.60;54.20;;;;;;111243;1238;50446;-64
2023/06/20 00:35:39;;;;;;;;;24.33;22.67;25.50;53.90;;;;;;111183;1238;51079;-64
2023/06/20 00:38:06;;;;;;;;;19.00;18.75;25.50;53.90;;;;;;111191;1243;53982;-61
2023/06/20 00:40:33;;;;;;;;;21.33;19.00;25.50;53.90;;;;;;111220;1240;44178;-62
2023/06/20 00:43:00;;;;;;;;;22.75;20.00;25.50;53.80;;;;;;111251;1238;50387;-63
2023/06/20 00:45:35;;;;;;;;;20.33;19.00;25.50;53.80;;;;;;111255;1238;50315;-63
2023/06/20 00:48:04;;;;;;;;;19.50;19.00;25.50;53.90;;;;;;111198;1240;53982;-63
2023/06/20 00:50:32;;;;;;;;;20.00;19.25;25.50;54.00;;;;;;111251;1239;44259;-63
2023/06/20 00:53:01;;;;;;;;;21.00;20.00;25.50;54.00;;;;;;111239;1240;49134;-64
2023/06/20 00:55:28;;;;;;;;;21.75;21.00;25.50;54.00;;;;;;111256;1243;49094;-64
2023/06/20 00:57:59;;;;;;;;;21.75;19.25;25.50;53.90;;;;;;111218;1243;54104;-64
2023/06/20 01:00:28;;;;;;;;;21.25;20.25;25.50;53.90;;;;;;111178;1243;44170;-64
2023/06/20 01:03:00;;;;;;;;;21.33;20.33;25.50;53.90;;;;;;111212;1244;48842;-63
2023/06/20 01:05:28;;;;;;;;;22.00;19.75;25.50;53.90;;;;;;111270;1243;49317;-62
2023/06/20 01:08:03;;;;;;;;;22.50;21.50;25.50;54.00;;;;;;111183;1243;54026;-63
2023/06/20 01:10:42;;;;;;;;;19.50;18.75;25.50;53.90;;;;;;111226;1243;45681;-63
2023/06/20 01:13:19;;;;;;;;;21.25;21.00;25.50;53.90;;;;;;111227;1238;50698;-63
2023/06/20 01:16:11;;;;;;;;;19.67;17.67;25.50;53.90;;;;;;111225;1242;49396;-62
2023/06/20 01:18:54;;;;;;;;;21.00;20.50;25.50;53.90;;;;;;111203;1243;54023;-63
2023/06/20 01:21:30;;;;;;;;;23.50;20.00;25.50;54.00;;;;;;111211;1243;45883;-64
2023/06/20 01:24:00;;;;;;;;;19.25;18.50;25.50;53.80;;;;;;111354;1243;49902;-63
2023/06/20 01:26:34;;;;;;;;;23.25;22.75;25.50;53.80;;;;;;111189;1243;49506;-64
2023/06/20 01:29:15;;;;;;;;;21.00;20.00;25.50;53.80;;;;;;111240;1243;55462;-62
2023/06/20 01:31:49;;;;;;;;;22.75;20.75;25.50;53.80;;;;;;111389;1238;46347;-63
2023/06/20 01:34:29;;;;;;;;;23.00;21.00;25.50;53.80;;;;;;111205;1244;49064;-63
2023/06/20 01:36:58;;;;;;;;;20.50;20.25;25.50;53.80;;;;;;111251;1243;49416;-62
2023/06/20 01:39:51;;;;;;;;;21.67;20.67;25.50;53.80;;;;;;111377;1238;54198;-62
2023/06/20 01:42:23;;;;;;;;;21.25;20.50;25.50;53.90;;;;;;111139;1243;45809;-63
2023/06/20 01:44:51;;;;;;;;;21.00;19.75;25.50;53.90;;;;;;111195;1240;50079;-63
2023/06/20 01:47:19;;;;;;;;;22.00;19.75;25.50;53.80;;;;;;111242;1241;48921;-62
2023/06/20 01:49:48;;;;;;;;;20.67;19.33;25.50;53.80;;;;;;111222;1240;54206;-63
2023/06/20 01:52:16;;;;;;;;;22.00;20.33;25.50;54.00;;;;;;111249;1243;44301;-62
2023/06/20 01:54:47;;;;;;;;;21.00;18.67;25.40;53.80;;;;;;111305;1243;49491;-64
2023/06/20 01:57:16;;;;;;;;;19.00;18.33;25.40;53.90;;;;;;111337;1239;50506;-63
2023/06/20 01:59:44;;;;;;;;;20.25;18.50;25.50;53.90;;;;;;111139;1244;54743;-62
2023/06/20 02:02:12;;;;;;;;;22.00;21.00;25.40;53.80;;;;;;111194;1243;45070;-64
2023/06/20 02:04:39;;;;;;;;;21.00;20.00;25.40;53.80;;;;;;111244;1244;50230;-63
2023/06/20 02:07:07;;;;;;;;;22.67;21.00;25.40;53.80;;;;;;111180;1244;49236;-62
2023/06/20 02:09:37;;;;;;;;;22.25;22.00;25.40;53.80;;;;;;111235;1243;54974;-62
2023/06/20 02:12:06;;;;;;;;;22.25;22.25;25.40;53.80;;;;;;111201;1243;44739;-62
2023/06/20 02:14:33;;;;;;;;;22.25;20.75;25.30;53.70;;;;;;111264;1244;49729;-63
2023/06/20 02:17:02;;;;;;;;;20.50;19.75;25.30;53.70;;;;;;111107;1244;49568;-64
2023/06/20 02:19:30;;;;;;;;;20.00;18.00;25.30;53.70;;;;;;111202;1238;53660;-63
2023/06/20 02:21:57;;;;;;;;;19.75;18.25;25.30;53.70;;;;;;111185;1240;45369;-64
2023/06/20 02:24:26;;;;;;;;;20.00;18.00;25.30;53.70;;;;;;111276;1244;49262;-63
2023/06/20 02:26:56;;;;;;;;;18.25;17.75;25.30;53.70;;;;;;111236;1238;49436;-62
2023/06/20 02:29:25;;;;;;;;;19.50;18.25;25.30;53.90;;;;;;111233;1240;53958;-62
2023/06/20 02:31:53;;;;;;;;;22.00;20.50;25.30;53.70;;;;;;111179;1244;45409;-64
2023/06/20 02:34:21;;;;;;;;;20.00;19.00;25.30;53.70;;;;;;111155;1241;50556;-63
2023/06/20 02:36:49;;;;;;;;;17.50;16.00;25.30;53.70;;;;;;111203;1243;48856;-62
2023/06/20 02:39:16;;;;;;;;;19.00;18.00;25.30;53.80;;;;;;111221;1244;53482;-63
2023/06/20 02:41:43;;;;;;;;;21.00;18.75;25.30;53.60;;;;;;111186;1244;44454;-64
2023/06/20 02:44:10;;;;;;;;;22.00;20.25;25.30;53.80;;;;;;111287;1238;49002;-63
2023/06/20 02:46:56;;;;;;;;;22.00;21.00;25.20;53.60;;;;;;111278;1239;49287;-63
2023/06/20 02:49:54;;;;;;;;;17.50;16.00;25.20;53.60;;;;;;111380;1243;54435;-63
2023/06/20 02:52:26;;;;;;;;;21.00;19.50;25.30;53.70;;;;;;111063;1239;46013;-64
2023/06/20 02:55:12;;;;;;;;;18.00;18.00;25.20;53.60;;;;;;111234;1238;49168;-63
2023/06/20 02:57:45;;;;;;;;;23.00;21.00;25.30;53.60;;;;;;111209;1243;49213;-62
2023/06/20 03:00:12;;;;;;;;;19.75;19.00;25.30;53.60;;;;;;111233;1240;53779;-63
2023/06/20 03:02:43;;;;;;;;;20.75;19.00;25.30;53.60;;;;;;111235;1243;44554;-62
2023/06/20 03:05:13;;;;;;;;;20.25;17.50;25.30;53.50;;;;;;111225;1243;49158;-64
2023/06/20 03:07:41;;;;;;;;;22.00;20.00;25.20;53.50;;;;;;111205;1239;49882;-64
2023/06/20 03:10:09;;;;;;;;;21.25;19.00;25.20;53.50;;;;;;111222;1243;55119;-63
2023/06/20 03:12:37;;;;;;;;;20.25;19.25;25.20;53.40;;;;;;111205;1244;44507;-64
2023/06/20 03:15:05;;;;;;;;;19.00;18.00;25.20;53.50;;;;;;111259;1243;49783;-63
2023/06/20 03:17:35;;;;;;;;;22.00;21.00;25.20;53.50;;;;;;111272;1240;50523;-62
2023/06/20 03:20:05;;;;;;;;;20.75;20.00;25.20;53.50;;;;;;111416;1244;54677;-62
2023/06/20 03:22:32;;;;;;;;;20.25;18.75;25.20;53.50;;;;;;111236;1243;45207;-63
2023/06/20 03:24:59;;;;;;;;;20.00;18.67;25.20;53.70;;;;;;111211;1243;50378;-62
2023/06/20 03:27:26;;;;;;;;;22.33;22.00;25.20;53.50;;;;;;111302;1243;49187;-66
2023/06/20 03:29:53;;;;;;;;;20.75;20.00;25.20;53.50;;;;;;111205;1240;53774;-62
2023/06/20 03:32:20;;;;;;;;;21.00;20.25;25.20;53.60;;;;;;111253;1243;45430;-64
2023/06/20 03:34:47;;;;;;;;;20.00;19.67;25.20;53.60;;;;;;111167;1244;49457;-63
2023/06/20 03:37:14;;;;;;;;;19.50;18.50;25.20;53.70;;;;;;111274;1240;49374;-63
2023/06/20 03:39:41;;;;;;;;;17.00;15.00;25.20;53.70;;;;;;111208;1243;53536;-63
2023/06/20 03:42:08;;;;;;;;;20.00;19.25;25.20;54.10;;;;;;111197;1238;44000;-64
2023/06/20 03:44:35;;;;;;;;;20.00;18.75;25.20;53.80;;;;;;111214;1240;49163;-64
2023/06/20 03:47:02;;;;;;;;;21.50;21.00;25.20;53.70;;;;;;111252;1244;48907;-63
2023/06/20 03:49:29;;;;;;;;;21.75;20.00;25.20;53.70;;;;;;111181;1241;54355;-63
2023/06/20 03:51:56;;;;;;;;;16.25;16.00;25.20;53.80;;;;;;111245;1241;44535;-64
2023/06/20 03:54:23;;;;;;;;;18.75;17.75;25.10;53.60;;;;;;111250;1240;49236;-63
2023/06/20 03:56:59;;;;;;;;;19.00;18.50;25.10;53.80;;;;;;111336;1240;49080;-64
2023/06/20 03:59:40;;;;;;;;;19.00;18.50;25.10;53.80;;;;;;111252;1244;53505;-63
2023/06/20 04:02:07;;;;;;;;;20.00;20.00;25.20;53.80;;;;;;111213;1240;44880;-65
2023/06/20 04:04:34;;;;;;;;;21.25;20.25;25.20;53.80;;;;;;111413;1243;50194;-62
2023/06/20 04:07:01;;;;;;;;;22.75;21.00;25.20;53.80;;;;;;111427;1238;49383;-64
2023/06/20 04:09:28;;;;;;;;;20.75;19.00;25.20;53.80;;;;;;111200;1243;53524;-63
2023/06/20 04:11:55;;;;;;;;;21.00;19.75;25.20;53.80;;;;;;111289;1242;44689;-64
2023/06/20 04:14:22;;;;;;;;;19.25;18.25;25.10;53.80;;;;;;111259;1240;49390;-64
2023/06/20 04:16:49;;;;;;;;;22.50;20.50;25.20;53.80;;;;;;111237;1239;49914;-64
2023/06/20 04:19:17;;;;;;;;;23.75;20.75;25.10;54.00;;;;;;111191;1240;53232;-62
2023/06/20 04:21:44;;;;;;;;;19.50;19.00;25.10;53.80;;;;;;111238;1243;44535;-63
2023/06/20 04:24:11;;;;;;;;;19.67;19.33;25.20;54.10;;;;;;111238;1241;49281;-64
2023/06/20 04:26:38;;;;;;;;;18.00;16.67;25.10;53.80;;;;;;111285;1243;49613;-64
2023/06/20 04:29:05;;;;;;;;;20.00;17.50;25.10;53.90;;;;;;111252;1241;54254;-66
2023/06/20 04:31:32;;;;;;;;;16.00;15.00;25.20;53.90;;;;;;111213;1238;44814;-64
2023/06/20 04:33:58;;;;;;;;;22.00;20.00;25.10;53.80;;;;;;111237;1241;49478;-63
2023/06/20 04:36:26;;;;;;;;;20.25;19.75;25.10;53.80;;;;;;111417;1238;49954;-63
2023/06/20 04:38:53;;;;;;;;;20.67;20.00;25.20;54.10;;;;;;111282;1238;55189;-63
2023/06/20 04:41:20;;;;;;;;;20.00;19.00;25.10;53.80;;;;;;111241;1240;45006;-63
2023/06/20 04:43:47;;;;;;;;;20.67;19.00;25.20;53.90;;;;;;111248;1240;50472;-63
2023/06/20 04:46:15;;;;;;;;;18.50;18.00;25.20;53.80;;;;;;111237;1244;49594;-64
2023/06/20 04:48:44;;;;;;;;;18.25;18.00;25.10;53.80;;;;;;111209;1243;54649;-64
2023/06/20 04:51:11;;;;;;;;;19.67;18.67;25.20;53.80;;;;;;111321;1243;45307;-63
2023/06/20 04:53:38;;;;;;;;;20.00;19.00;25.20;53.80;;;;;;111260;1241;49673;-63
2023/06/20 04:56:05;;;;;;;;;23.00;21.00;25.10;53.70;;;;;;111290;1239;50524;-64
2023/06/20 04:58:32;;;;;;;;;22.00;19.75;25.10;53.80;;;;;;111218;1243;53874;-63
2023/06/20 05:01:00;;;;;;;;;19.75;19.00;25.10;53.70;;;;;;111210;1239;44476;-63
2023/06/20 05:03:27;;;;;;;;;22.75;21.00;25.10;53.80;;;;;;111275;1243;49812;-63
2023/06/20 05:05:54;;;;;;;;;20.00;18.00;25.10;53.80;;;;;;111418;1243;50406;-63
2023/06/20 05:08:21;;;;;;;;;18.25;16.00;25.20;53.90;;;;;;111266;1244;53451;-63
2023/06/20 05:10:48;;;;;;;;;19.50;18.75;25.10;53.80;;;;;;111223;1239;44694;-63
2023/06/20 05:13:15;;;;;;;;;19.00;18.00;25.10;53.90;;;;;;111217;1238;49349;-62
2023/06/20 05:15:42;;;;;;;;;21.00;19.25;25.20;53.90;;;;;;111217;1238;49711;-64
2023/06/20 05:18:09;;;;;;;;;20.25;19.25;25.10;53.80;;;;;;111251;1243;53363;-64
2023/06/20 05:20:36;;;;;;;;;20.75;20.00;25.10;53.80;;;;;;111241;1239;44494;-63
2023/06/20 05:23:03;;;;;;;;;19.75;18.50;25.10;53.80;;;;;;111236;1243;48926;-62
2023/06/20 05:25:31;;;;;;;;;20.75;19.75;25.10;53.80;;;;;;111289;1243;49119;-63
2023/06/20 05:27:58;;;;;;;;;19.00;18.25;25.10;53.90;;;;;;111229;1243;53936;-63
2023/06/20 05:30:25;;;;;;;;;19.50;18.75;25.20;53.90;;;;;;111229;1238;44950;-64
2023/06/20 05:32:52;;;;;;;;;21.00;19.25;25.20;53.90;;;;;;111274;1238;49258;-64
2023/06/20 05:35:19;;;;;;;;;19.00;18.00;25.10;53.90;;;;;;111318;1240;49762;-63
2023/06/20 05:37:49;;;;;;;;;18.75;18.25;25.10;53.90;;;;;;111202;1244;54717;-62
2023/06/20 05:40:16;;;;;;;;;20.00;19.00;25.10;53.90;;;;;;111291;1240;44491;-66
2023/06/20 05:42:43;;;;;;;;;20.00;19.00;25.20;54.20;;;;;;111241;1240;49730;-64
2023/06/20 05:45:10;;;;;;;;;21.50;21.00;25.20;54.00;;;;;;111272;1243;49288;-62
2023/06/20 05:47:37;;;;;;;;;21.75;20.00;25.20;54.10;;;;;;111242;1240;53897;-62
2023/06/20 05:50:05;;;;;;;;;20.67;20.33;25.20;54.00;;;;;;111212;1238;44254;-62
2023/06/20 05:52:32;;;;;;;;;23.00;20.50;25.20;54.00;;;;;;111208;1243;49621;-63
2023/06/20 05:54:59;;;;;;;;;19.50;19.25;25.20;54.00;;;;;;111354;1239;50018;-63
2023/06/20 05:57:26;;;;;;;;;19.00;18.25;25.20;54.10;;;;;;111387;1238;54372;-64
2023/06/20 05:59:53;;;;;;;;;20.67;19.00;25.20;54.10;;;;;;111242;1243;44341;-63
2023/06/20 06:02:23;;;;;;;;;21.25;19.50;25.20;54.10;;;;;;111305;1240;49153;-67
2023/06/20 06:04:50;;;;;;;;;21.75;20.00;25.20;54.30;;;;;;111245;1240;49559;-63
2023/06/20 06:07:17;;;;;;;;;17.67;17.00;25.20;54.20;;;;;;111309;1243;54157;-62
2023/06/20 06:09:44;;;;;;;;;21.67;21.00;25.20;54.20;;;;;;111238;1243;44175;-62
2023/06/20 06:12:11;;;;;;;;;23.33;21.33;25.20;54.20;;;;;;111218;1240;48970;-63
2023/06/20 06:14:38;;;;;;;;;20.00;19.00;25.10;54.40;;;;;;111227;1238;49475;-62
2023/06/20 06:17:05;;;;;;;;;20.00;19.00;25.10;54.30;;;;;;111249;1243;53861;-63
2023/06/20 06:19:32;;;;;;;;;21.00;19.67;25.10;54.60;;;;;;111286;1240;44731;-64
2023/06/20 06:21:59;;;;;;;;;19.00;17.75;25.10;54.40;;;;;;111232;1243;50432;-64
2023/06/20 06:24:26;;;;;;;;;19.33;18.33;25.10;54.50;;;;;;111241;1244;48983;-63
2023/06/20 06:26:53;;;;;;;;;16.50;16.00;25.10;54.50;;;;;;111218;1240;53611;-63
2023/06/20 06:29:20;;;;;;;;;20.25;18.50;25.10;54.70;;;;;;111179;1244;44488;-63
2023/06/20 06:31:47;;;;;;;;;18.00;17.00;25.10;54.80;;;;;;111261;1242;49231;-63
2023/06/20 06:34:17;;;;;;;;;17.50;17.00;25.10;54.60;;;;;;111378;1243;50109;-63
2023/06/20 06:36:48;;;;;;;;;18.00;17.00;25.20;54.60;;;;;;111399;1240;54907;-64
2023/06/20 06:39:17;;;;;;;;;19.67;19.00;25.20;54.60;;;;;;111222;1240;44467;-64
2023/06/20 06:41:49;;;;;;;;;19.00;17.00;25.20;54.60;;;;;;111235;1239;48904;-63
2023/06/20 06:44:17;;;;;;;;;19.00;18.00;25.20;54.60;;;;;;111233;1244;49603;-63
2023/06/20 06:46:44;;;;;;;;;18.00;16.75;25.20;54.60;;;;;;111197;1242;53654;-63
2023/06/20 06:49:12;;;;;;;;;19.25;16.00;25.20;54.60;;;;;;111257;1241;44869;-62
2023/06/20 06:51:40;;;;;;;;;17.75;16.75;25.30;54.60;;;;;;111235;1238;49183;-62
2023/06/20 06:54:07;;;;;;;;;20.00;18.67;25.30;54.60;;;;;;111304;1239;49041;-63
2023/06/20 06:56:34;;;;;;;;;16.00;15.75;25.30;54.70;;;;;;111242;1243;54944;-64
2023/06/20 06:59:02;;;;;;;;;17.00;16.00;25.30;54.60;;;;;;111246;1243;45133;-63
2023/06/20 07:01:29;;;;;;;;;16.25;16.00;25.30;54.60;;;;;;111254;1243;49267;-62
2023/06/20 07:03:56;;;;;;;;;21.75;19.50;25.30;54.80;;;;;;111223;1243;49757;-63
2023/06/20 07:06:23;;;;;;;;;18.50;17.75;25.30;54.60;;;;;;111213;1245;53856;-63
2023/06/20 07:08:52;;;;;;;;;21.00;19.50;25.40;54.60;;;;;;111267;1243;44557;-63
2023/06/20 07:11:19;;;;;;;;;17.75;15.75;25.40;54.80;;;;;;111219;1244;50318;-63
2023/06/20 07:13:46;;;;;;;;;19.50;18.00;25.40;54.60;;;;;;111257;1240;49583;-62
2023/06/20 07:16:13;;;;;;;;;19.00;18.25;25.40;54.60;;;;;;111223;1238;53846;-62
2023/06/20 07:18:40;;;;;;;;;18.33;17.00;25.40;54.50;;;;;;111309;1243;44282;-63
2023/06/20 07:21:07;;;;;;;;;19.50;18.75;25.50;54.60;;;;;;111272;1243;49993;-62
2023/06/20 07:23:34;;;;;;;;;19.50;18.25;25.50;54.50;;;;;;111288;1240;48923;-62
2023/06/20 07:26:01;;;;;;;;;17.00;16.00;25.50;54.40;;;;;;111278;1238;53755;-64
2023/06/20 07:28:28;;;;;;;;;18.25;16.50;25.50;54.60;;;;;;111297;1239;44977;-64
2023/06/20 07:30:55;;;;;;;;;19.00;16.00;25.50;54.60;;;;;;111338;1243;49523;-62
2023/06/20 07:33:22;;;;;;;;;18.00;17.00;25.50;54.60;;;;;;111208;1240;49300;-62
2023/06/20 07:35:49;;;;;;;;;20.50;18.50;25.60;54.60;;;;;;111227;1238;53353;-63
2023/06/20 07:38:16;;;;;;;;;18.50;17.75;25.50;54.70;;;;;;111256;1238;45496;-64
2023/06/20 07:40:43;;;;;;;;;16.75;15.50;25.60;54.60;;;;;;111245;1240;49557;-63
2023/06/20 07:43:10;;;;;;;;;19.00;17.25;25.60;54.60;;;;;;111217;1243;49980;-63
2023/06/20 07:45:37;;;;;;;;;16.00;15.25;25.60;54.60;;;;;;111268;1239;53733;-63
2023/06/20 07:48:04;;;;;;;;;17.00;16.00;25.60;54.70;;;;;;111238;1243;44324;-63
2023/06/20 07:50:31;;;;;;;;;17.00;16.25;25.70;54.50;;;;;;111249;1238;49500;-62
2023/06/20 07:52:58;;;;;;;;;21.50;20.00;25.60;54.40;;;;;;111256;1241;49675;-62
2023/06/20 07:55:25;;;;;;;;;20.00;19.00;25.70;54.60;;;;;;111269;1240;54035;-62
2023/06/20 07:57:53;;;;;;;;;18.75;17.50;25.70;54.40;;;;;;111314;1238;45001;-64
2023/06/20 08:00:22;;;;;;;;;19.00;18.00;25.70;54.60;;;;;;111246;1244;49377;-64
2023/06/20 08:02:50;;;;;;;;;17.67;16.67;25.70;54.40;;;;;;111172;1240;49117;-63
2023/06/20 08:05:17;;;;;;;;;21.25;19.00;25.70;54.40;;;;;;111348;1238;54210;-63
2023/06/20 08:07:44;;;;;;;;;18.75;17.50;25.70;54.40;;;;;;111304;1240;44843;-64
2023/06/20 08:10:11;;;;;;;;;19.00;17.50;25.80;54.40;;;;;;111330;1241;49735;-63
2023/06/20 08:12:38;;;;;;;;;20.75;19.25;25.80;54.40;;;;;;111229;1240;48990;-62
2023/06/20 08:15:06;;;;;;;;;18.00;16.50;25.80;54.40;;;;;;111242;1240;53650;-63
2023/06/20 08:17:33;;;;;;;;;18.00;17.25;25.80;54.40;;;;;;111230;1243;44937;-63
2023/06/20 08:20:00;;;;;;;;;18.00;15.25;25.90;54.30;;;;;;111304;1238;49089;-63
2023/06/20 08:22:27;;;;;;;;;19.33;17.33;25.90;54.40;;;;;;111172;1244;50632;-62
2023/06/20 08:24:54;;;;;;;;;20.33;19.67;25.90;54.20;;;;;;111247;1239;53427;-64
2023/06/20 08:27:21;;;;;;;;;18.25;16.25;25.90;53.80;;;;;;111236;1238;44891;-63
2023/06/20 08:29:48;;;;;;;;;17.00;16.50;25.90;54.20;;;;;;111307;1240;48786;-62
2023/06/20 08:32:15;;;;;;;;;16.75;16.00;25.90;54.20;;;;;;111237;1244;50483;-63
2023/06/20 08:34:42;;;;;;;;;17.75;17.00;25.90;54.20;;;;;;111258;1243;54251;-63
2023/06/20 08:37:09;;;;;;;;;17.75;16.25;25.90;54.20;;;;;;111260;1240;44988;-62
2023/06/20 08:39:36;;;;;;;;;16.50;15.75;26.00;54.50;;;;;;111205;1238;49646;-63
2023/06/20 08:42:04;;;;;;;;;18.50;16.50;26.00;54.10;;;;;;111147;1244;50104;-63
2023/06/20 08:44:31;;;;;;;;;20.50;18.50;26.00;54.20;;;;;;111266;1243;53719;-63
2023/06/20 08:46:58;;;;;;;;;17.33;16.33;26.00;54.20;;;;;;111192;1243;44352;-62
2023/06/20 08:49:25;;;;;;;;;20.75;18.00;26.00;54.20;;;;;;111273;1243;49098;-63
2023/06/20 08:51:54;;;;;;;;;20.00;18.50;26.10;54.70;;;;;;111287;1245;49719;-64
2023/06/20 08:54:22;;;;;;;;;15.00;13.00;26.10;54.40;;;;;;111249;1240;53279;-63
2023/06/20 08:56:49;;;;;;;;;15.50;14.00;26.10;54.40;;;;;;111261;1243;44411;-63
2023/06/20 08:59:22;;;;;;;;;19.00;17.33;26.10;54.10;;;;;;111274;1240;49909;-64
2023/06/20 09:01:49;;;;;;;;;20.25;19.75;26.10;53.60;;;;;;111301;1238;48884;-63
2023/06/20 09:04:17;;;;;;;;;16.75;16.00;26.20;54.30;;;;;;111325;1243;54023;-63
2023/06/20 09:06:47;;;;;;;;;14.50;13.50;26.20;54.30;;;;;;111321;1240;44829;-62
2023/06/20 09:09:16;;;;;;;;;17.25;16.50;26.20;54.00;;;;;;111317;1240;49185;-63
2023/06/20 09:11:52;;;;;;;;;16.00;15.00;26.20;54.00;;;;;;111332;1242;49817;-63
2023/06/20 09:14:19;;;;;;;;;16.00;15.33;26.30;54.10;;;;;;111305;1238;53601;-63
2023/06/20 09:16:49;;;;;;;;;17.50;16.75;26.30;54.10;;;;;;111283;1240;45486;-63
2023/06/20 09:19:16;;;;;;;;;17.25;16.00;26.30;54.20;;;;;;111275;1244;49180;-63
2023/06/20 09:21:43;;;;;;;;;19.00;16.25;26.30;54.20;;;;;;111295;1239;48935;-62
2023/06/20 09:24:10;;;;;;;;;18.67;16.67;26.30;54.00;;;;;;111229;1243;53935;-62
2023/06/20 09:26:37;;;;;;;;;16.50;15.75;26.40;54.20;;;;;;111274;1243;44356;-63
2023/06/20 09:29:09;;;;;;;;;16.25;16.00;26.40;54.00;;;;;;111216;1243;49121;-64
2023/06/20 09:31:55;;;;;;;;;14.25;13.25;26.40;53.50;;;;;;111195;1244;49320;-64
2023/06/20 09:34:22;;;;;;;;;17.75;16.75;26.40;53.90;;;;;;111244;1240;53640;-63
2023/06/20 09:36:48;;;;;;;;;16.00;15.00;26.50;54.50;;;;;;111279;1240;44701;-64
2023/06/20 09:39:20;;;;;;;;;15.00;14.00;26.50;53.90;;;;;;111233;1240;49376;-64
2023/06/20 09:41:49;;;;;;;;;20.00;18.00;26.50;53.80;;;;;;111250;1244;49206;-64
2023/06/20 09:44:17;;;;;;;;;16.00;15.33;26.50;53.80;;;;;;111232;1240;54974;-62
2023/06/20 09:46:45;;;;;;;;;19.00;17.00;26.50;53.80;;;;;;111256;1243;44923;-64
2023/06/20 09:49:14;;;;;;;;;18.75;18.00;26.50;53.90;;;;;;111285;1243;50228;-66
2023/06/20 09:51:47;;;;;;;;;16.75;15.00;26.50;53.80;;;;;;111256;1243;49096;-67
2023/06/20 09:54:15;;;;;;;;;17.00;16.00;26.50;53.70;;;;;;111184;1244;54232;-63
2023/06/20 09:56:47;;;;;;;;;19.67;18.00;26.50;53.50;;;;;;111396;1239;44894;-62
2023/06/20 09:59:16;;;;;;;;;16.00;15.25;26.60;53.60;;;;;;111268;1242;49620;-63
2023/06/20 10:01:43;;;;;;;;;16.75;15.75;26.60;53.60;;;;;;111230;1240;50508;-63
2023/06/20 10:04:10;;;;;;;;;17.67;16.00;26.60;53.60;;;;;;111339;1240;53312;-63
2023/06/20 10:06:38;;;;;;;;;16.50;16.00;26.60;53.60;;;;;;111411;1240;44941;-63
2023/06/20 10:09:07;;;;;;;;;17.33;16.67;26.60;53.60;;;;;;111336;1245;49407;-63
2023/06/20 10:11:36;;;;;;;;;20.00;18.33;26.60;53.70;;;;;;111243;1243;49562;-62
2023/06/20 10:14:04;;;;;;;;;15.25;14.25;26.70;53.60;;;;;;111282;1239;54947;-63
2023/06/20 10:16:31;;;;;;;;;15.25;14.25;26.70;53.50;;;;;;111234;1243;44367;-64
2023/06/20 10:19:17;;;;;;;;;18.75;17.75;26.70;53.50;;;;;;111253;1238;49678;-62
2023/06/20 10:21:57;;;;;;;;;15.25;14.50;26.70;53.40;;;;;;111245;1240;49855;-64
2023/06/20 10:24:26;;;;;;;;;16.25;14.50;26.70;53.50;;;;;;111196;1240;53296;-63
2023/06/20 10:27:00;;;;;;;;;18.00;17.75;26.70;53.70;;;;;;111209;1244;44879;-63
2023/06/20 10:29:28;;;;;;;;;19.50;17.00;26.70;53.50;;;;;;111324;1240;49729;-63
2023/06/20 10:32:09;;;;;;;;;18.25;17.25;26.70;53.50;;;;;;111240;1238;49056;-64
2023/06/20 10:34:39;;;;;;;;;18.00;16.25;26.70;53.80;;;;;;111191;1244;54616;-65
2023/06/20 10:37:16;;;;;;;;;14.75;14.00;26.70;53.60;;;;;;111330;1244;44325;-63
2023/06/20 10:39:59;;;;;;;;;16.00;15.67;26.70;53.60;;;;;;111211;1240;49472;-63
2023/06/20 10:42:43;;;;;;;;;17.00;16.00;26.80;54.00;;;;;;111242;1244;49783;-63
2023/06/20 10:45:21;;;;;;;;;17.75;17.50;26.80;53.60;;;;;;111269;1241;53524;-62
2023/06/20 10:47:48;;;;;;;;;20.00;18.00;26.80;53.70;;;;;;111263;1238;44169;-63
2023/06/20 10:50:16;;;;;;;;;17.50;14.00;26.80;53.60;;;;;;111236;1240;49918;-63
2023/06/20 10:52:43;;;;;;;;;14.50;14.00;26.80;53.60;;;;;;111310;1243;50285;-66
2023/06/20 10:55:12;;;;;;;;;15.75;15.00;26.80;53.60;;;;;;111224;1239;53699;-63
2023/06/20 10:57:46;;;;;;;;;16.00;15.50;26.80;53.90;;;;;;111234;1240;44214;-62
2023/06/20 11:00:17;;;;;;;;;17.00;16.50;26.80;53.70;;;;;;111338;1244;49497;-63
2023/06/20 11:02:46;;;;;;;;;17.00;16.50;26.80;53.70;;;;;;111266;1243;48986;-63
2023/06/20 11:05:13;;;;;;;;;16.00;15.00;26.80;53.80;;;;;;111162;1242;53803;-63
2023/06/20 11:08:00;;;;;;;;;15.33;14.33;26.80;53.80;;;;;;111190;1244;45656;-62
2023/06/20 11:10:37;;;;;;;;;15.50;15.00;26.90;53.70;;;;;;111198;1240;48889;-63
2023/06/20 11:13:06;;;;;;;;;16.67;15.33;26.90;53.70;;;;;;111214;1243;49155;-62
2023/06/20 11:15:34;;;;;;;;;17.00;16.67;26.90;53.70;;;;;;111163;1240;54115;-64
2023/06/20 11:18:05;;;;;;;;;18.00;17.00;26.90;53.70;;;;;;111255;1238;45526;-62
2023/06/20 11:20:39;;;;;;;;;18.75;15.00;26.90;53.60;;;;;;111218;1239;50047;-65
2023/06/20 11:23:08;;;;;;;;;16.25;16.00;26.90;53.60;;;;;;111237;1243;49911;-63
2023/06/20 11:25:36;;;;;;;;;16.00;14.00;26.90;53.50;;;;;;111286;1238;53776;-63
2023/06/20 11:28:07;;;;;;;;;15.00;15.00;27.00;53.60;;;;;;110797;1243;656910;-63
2023/06/20 11:30:37;;;;;;;;;15.00;14.00;26.90;53.30;;;;;;111227;1238;49699;-62
2023/06/20 11:33:04;;;;;;;;;19.00;17.67;26.90;53.30;;;;;;111250;1244;49986;-63
2023/06/20 11:36:10;;;;;;;;;16.00;15.50;27.00;53.40;;;;;;111225;1241;53143;-64
2023/06/20 11:38:39;;;;;;;;;18.00;16.50;27.00;52.80;;;;;;110445;1246;45815;-62
2023/06/20 11:41:07;;;;;;;;;17.00;15.00;27.00;52.70;;;;;;110621;1248;49511;-63
2023/06/20 11:43:42;;;;;;;;;17.25;17.00;27.00;52.60;;;;;;110948;1243;50282;-62
2023/06/20 11:46:11;;;;;;;;;18.25;16.00;27.00;52.60;;;;;;111283;1243;54780;-64
2023/06/20 11:48:47;;;;;;;;;16.50;14.25;27.00;52.80;;;;;;111245;1238;45003;-64
2023/06/20 11:51:14;;;;;;;;;15.67;14.33;27.00;52.80;;;;;;111217;1239;50344;-64
2023/06/20 11:53:41;;;;;;;;;18.25;17.25;27.00;52.80;;;;;;111288;1240;50547;-62
2023/06/20 11:56:11;;;;;;;;;16.50;16.00;27.00;52.90;;;;;;111223;1243;54254;-64
2023/06/20 11:58:42;;;;;;;;;16.67;16.00;27.00;53.00;;;;;;111160;1240;44244;-63
2023/06/20 12:01:23;;;;;;;;;17.50;17.00;27.00;53.00;;;;;;111184;1244;49120;-62
2023/06/20 12:04:09;;;;;;;;;15.00;14.00;27.00;52.90;;;;;;111179;1240;50270;-63
2023/06/20 12:06:38;;;;;;;;;15.00;14.00;27.00;52.80;;;;;;111209;1240;54328;-63
2023/06/20 12:09:17;;;;;;;;;16.00;15.00;27.00;52.80;;;;;;111239;1243;44188;-63
2023/06/20 12:11:54;;;;;;;;;16.00;15.00;27.00;53.00;;;;;;111349;1241;49583;-62
2023/06/20 12:14:23;;;;;;;;;16.67;15.33;27.00;52.90;;;;;;111243;1240;48882;-63
2023/06/20 12:16:50;;;;;;;;;15.00;14.25;27.00;53.00;;;;;;111224;1243;53919;-63
2023/06/20 12:19:22;;;;;;;;;18.75;16.00;27.00;53.10;;;;;;111406;1243;44248;-64
2023/06/20 12:21:49;;;;;;;;;16.33;15.33;27.00;53.10;;;;;;111174;1240;50589;-62
2023/06/20 12:24:16;;;;;;;;;17.33;16.33;27.00;53.00;;;;;;111250;1243;49680;-63
2023/06/20 12:26:46;;;;;;;;;16.75;15.25;27.00;53.10;;;;;;111292;1238;54086;-63
2023/06/20 12:29:13;;;;;;;;;14.00;13.00;27.00;53.10;;;;;;111318;1241;44987;-62